METAR
METAR

METAR

METAR EPSY 182100Z VRB02KT CAVOK 08/07 Q1019=
TAF EPSY 182030Z 1821/1906 36005KT CAVOK TEMPO 1901/1906 3000 BR PROB30 1901/1906 0600 FG OVC002=
Ostrzeżenia
Ostrzeżenia

Ostrzeżenia

BRAK